Main page
METAR-TAF:

METAR-TAF

Airports :

Ørland Main Air Station

Ørland, Norway

latitude: 63-42N, longitude: 009-36E, elevation: 0 m

Current weather observation

The report was made 10 minutes ago, at 17:20 UTC
Wind 7 kt from the Northwest
Temperature 12°C
Humidity 62%
Pressure 1017 hPa
Visibility 10 km or more
no clouds below 1500 m and no cumulonimbus

METAR: ENOL 221720Z 31007KT CAVOK 12/05 Q1017 NOSIG

Time: 19:30 (17:30 UTC)

Forecast

Forecast valid from 22 at 12 UTC to 23 at 12 UTC
Wind 12 kt from the East/Southeast
Visibility 10 km or more
no clouds below 1500 m and no cumulonimbus
Becoming
from 22 at 14 UTC to 22 at 16 UTC
Wind 8 kt from the North/Northwest
Becoming
from 22 at 20 UTC to 22 at 23 UTC
Wind 12 kt from the East/Southeast

TAF: ENOL 2212/2312 12012KT CAVOK BECMG 2214/2216 33008KT BECMG 2220/2223 12012KT

Weather observations and forecasts of more than 4000 airports (METAR and TAF reports).

The available stations are represented by yellow and red dots on the map.

Hover mouse over dot to see the name of the station.

Then click to see weather observations and forecasts.

To change the map : click on the green buttons with a black cross to zoom in, on the green button with a dash to zoom out, or on the green arrows for adjacent maps.


METAR-TAF: